sensor_id;sensor_type;location;lat;lon;timestamp;pressure;altitude;pressure_sealevel;temperature;humidity
48606;BME280;8482;54.396;18.590;2023-04-26T04:37:01;100652.25;;;7.33;58.15
48606;BME280;8482;54.396;18.590;2023-04-26T04:39:26;100639.78;;;7.35;58.51
48606;BME280;8482;54.396;18.590;2023-04-26T04:41:53;100655.41;;;7.39;58.28
48606;BME280;8482;54.396;18.590;2023-04-26T04:44:19;100651.09;;;7.38;58.21
48606;BME280;8482;54.396;18.590;2023-04-26T04:46:45;100648.44;;;7.38;57.71
48606;BME280;8482;54.396;18.590;2023-04-26T04:49:11;100643.16;;;7.38;58.06
48606;BME280;8482;54.396;18.590;2023-04-26T04:51:38;100651.41;;;7.33;57.62
48606;BME280;8482;54.396;18.590;2023-04-26T04:54:17;100650.34;;;7.35;58.17
48606;BME280;8482;54.396;18.590;2023-04-26T04:56:44;100660.50;;;7.42;57.57
48606;BME280;8482;54.396;18.590;2023-04-26T04:59:10;100651.94;;;7.38;57.49
48606;BME280;8482;54.396;18.590;2023-04-26T05:01:36;100669.97;;;7.31;58.13
48606;BME280;8482;54.396;18.590;2023-04-26T05:04:04;100666.59;;;7.29;58.04
48606;BME280;8482;54.396;18.590;2023-04-26T05:06:30;100666.72;;;7.28;58.02
48606;BME280;8482;54.396;18.590;2023-04-26T05:08:59;100681.50;;;7.30;57.99
48606;BME280;8482;54.396;18.590;2023-04-26T05:11:26;100670.50;;;7.36;58.34
48606;BME280;8482;54.396;18.590;2023-04-26T05:13:52;100670.31;;;7.40;58.03
48606;BME280;8482;54.396;18.590;2023-04-26T05:16:18;100666.72;;;7.41;58.04
48606;BME280;8482;54.396;18.590;2023-04-26T05:18:44;100673.25;;;7.35;58.09
48606;BME280;8482;54.396;18.590;2023-04-26T05:21:10;100682.13;;;7.34;58.82
48606;BME280;8482;54.396;18.590;2023-04-26T05:23:36;100693.13;;;7.41;58.24
48606;BME280;8482;54.396;18.590;2023-04-26T05:26:05;100686.25;;;7.38;58.28
48606;BME280;8482;54.396;18.590;2023-04-26T05:28:31;100689.72;;;7.39;58.18
48606;BME280;8482;54.396;18.590;2023-04-26T05:30:58;100682.75;;;7.38;58.43
48606;BME280;8482;54.396;18.590;2023-04-26T05:33:24;100683.69;;;7.36;58.31
48606;BME280;8482;54.396;18.590;2023-04-26T05:35:50;100679.91;;;7.41;58.73
48606;BME280;8482;54.396;18.590;2023-04-26T05:38:19;100679.91;;;7.41;58.66
48606;BME280;8482;54.396;18.590;2023-04-26T05:40:45;100672.31;;;7.36;58.48
48606;BME280;8482;54.396;18.590;2023-04-26T05:43:13;100674.53;;;7.42;58.40
48606;BME280;8482;54.396;18.590;2023-04-26T05:45:39;100670.34;;;7.53;57.57
48606;BME280;8482;54.396;18.590;2023-04-26T05:48:05;100667.91;;;7.49;58.30
48606;BME280;8482;54.396;18.590;2023-04-26T05:50:31;100666.00;;;7.51;57.39
48606;BME280;8482;54.396;18.590;2023-04-26T05:52:57;100676.88;;;7.47;58.19
48606;BME280;8482;54.396;18.590;2023-04-26T05:55:23;100668.31;;;7.43;58.47
48606;BME280;8482;54.396;18.590;2023-04-26T05:57:49;100680.25;;;7.49;58.56
48606;BME280;8482;54.396;18.590;2023-04-26T06:00:15;100690.50;;;7.54;58.13
48606;BME280;8482;54.396;18.590;2023-04-26T06:02:43;100678.91;;;7.56;57.86
48606;BME280;8482;54.396;18.590;2023-04-26T06:05:10;100688.59;;;7.56;58.15
48606;BME280;8482;54.396;18.590;2023-04-26T06:07:36;100684.69;;;7.61;57.84
48606;BME280;8482;54.396;18.590;2023-04-26T06:10:02;100688.41;;;7.72;57.10
48606;BME280;8482;54.396;18.590;2023-04-26T06:12:28;100685.25;;;7.66;57.39
48606;BME280;8482;54.396;18.590;2023-04-26T06:14:54;100695.06;;;7.64;57.15
48606;BME280;8482;54.396;18.590;2023-04-26T06:17:20;100687.75;;;7.68;56.47
48606;BME280;8482;54.396;18.590;2023-04-26T06:19:45;100692.22;;;7.67;56.88
48606;BME280;8482;54.396;18.590;2023-04-26T06:22:11;100687.44;;;7.60;56.91
48606;BME280;8482;54.396;18.590;2023-04-26T06:24:37;100691.47;;;7.65;56.11
48606;BME280;8482;54.396;18.590;2023-04-26T06:27:03;100679.13;;;7.66;56.09
48606;BME280;8482;54.396;18.590;2023-04-26T06:29:31;100686.94;;;7.67;56.32
48606;BME280;8482;54.396;18.590;2023-04-26T06:31:58;100693.34;;;7.63;57.01
48606;BME280;8482;54.396;18.590;2023-04-26T06:34:24;100705.53;;;7.66;56.58
48606;BME280;8482;54.396;18.590;2023-04-26T06:36:50;100686.19;;;7.65;56.22
48606;BME280;8482;54.396;18.590;2023-04-26T06:39:15;100695.91;;;7.65;56.33
48606;BME280;8482;54.396;18.590;2023-04-26T06:41:42;100679.97;;;7.66;55.66
48606;BME280;8482;54.396;18.590;2023-04-26T06:44:08;100692.84;;;7.71;55.36
48606;BME280;8482;54.396;18.590;2023-04-26T06:46:33;100678.59;;;7.74;55.34
48606;BME280;8482;54.396;18.590;2023-04-26T06:49:00;100679.75;;;7.70;55.37
48606;BME280;8482;54.396;18.590;2023-04-26T06:51:26;100671.63;;;7.73;55.07
48606;BME280;8482;54.396;18.590;2023-04-26T06:53:55;100689.69;;;7.79;54.45
48606;BME280;8482;54.396;18.590;2023-04-26T06:56:23;100693.25;;;7.78;54.67
48606;BME280;8482;54.396;18.590;2023-04-26T06:59:04;100695.06;;;7.90;54.25
48606;BME280;8482;54.396;18.590;2023-04-26T07:01:31;100698.47;;;7.92;53.84
48606;BME280;8482;54.396;18.590;2023-04-26T07:04:02;100699.72;;;7.87;53.95
48606;BME280;8482;54.396;18.590;2023-04-26T07:06:29;100695.31;;;7.87;53.91
48606;BME280;8482;54.396;18.590;2023-04-26T07:08:59;100694.88;;;7.80;53.94
48606;BME280;8482;54.396;18.590;2023-04-26T07:11:27;100694.97;;;7.79;54.50
48606;BME280;8482;54.396;18.590;2023-04-26T07:13:53;100698.47;;;7.79;54.35
48606;BME280;8482;54.396;18.590;2023-04-26T07:16:20;100713.13;;;7.83;54.97
48606;BME280;8482;54.396;18.590;2023-04-26T07:18:46;100704.88;;;7.88;54.14
48606;BME280;8482;54.396;18.590;2023-04-26T07:21:15;100714.50;;;7.89;54.03
48606;BME280;8482;54.396;18.590;2023-04-26T07:23:40;100713.78;;;7.87;54.17
48606;BME280;8482;54.396;18.590;2023-04-26T07:26:09;100713.69;;;7.89;54.65
48606;BME280;8482;54.396;18.590;2023-04-26T07:28:35;100708.06;;;7.93;54.13
48606;BME280;8482;54.396;18.590;2023-04-26T07:31:01;100707.31;;;7.91;53.68
48606;BME280;8482;54.396;18.590;2023-04-26T07:33:27;100704.88;;;7.88;54.04
48606;BME280;8482;54.396;18.590;2023-04-26T07:35:58;100703.66;;;7.94;54.07
48606;BME280;8482;54.396;18.590;2023-04-26T07:38:26;100700.47;;;7.89;54.15
48606;BME280;8482;54.396;18.590;2023-04-26T07:40:52;100704.69;;;7.91;54.36
48606;BME280;8482;54.396;18.590;2023-04-26T07:43:19;100706.06;;;7.97;54.22
48606;BME280;8482;54.396;18.590;2023-04-26T07:45:45;100716.63;;;7.97;53.63
48606;BME280;8482;54.396;18.590;2023-04-26T07:48:12;100705.75;;;8.02;53.29
48606;BME280;8482;54.396;18.590;2023-04-26T07:50:38;100700.25;;;8.05;53.76
48606;BME280;8482;54.396;18.590;2023-04-26T07:53:04;100705.84;;;8.00;54.49
48606;BME280;8482;54.396;18.590;2023-04-26T07:55:30;100711.97;;;8.01;54.36
48606;BME280;8482;54.396;18.590;2023-04-26T07:57:56;100713.56;;;8.03;53.81
48606;BME280;8482;54.396;18.590;2023-04-26T08:00:22;100709.44;;;7.99;54.19
48606;BME280;8482;54.396;18.590;2023-04-26T08:02:48;100727.19;;;7.97;54.78
48606;BME280;8482;54.396;18.590;2023-04-26T08:05:15;100713.56;;;8.03;54.24
48606;BME280;8482;54.396;18.590;2023-04-26T08:07:42;100731.31;;;8.01;54.47
48606;BME280;8482;54.396;18.590;2023-04-26T08:10:09;100723.50;;;8.00;54.79
48606;BME280;8482;54.396;18.590;2023-04-26T08:12:37;100730.78;;;7.96;54.93
48606;BME280;8482;54.396;18.590;2023-04-26T08:15:04;100722.44;;;8.02;54.80
48606;BME280;8482;54.396;18.590;2023-04-26T08:17:31;100718.31;;;7.98;54.90
48606;BME280;8482;54.396;18.590;2023-04-26T08:19:58;100726.16;;;8.00;55.00
48606;BME280;8482;54.396;18.590;2023-04-26T08:22:24;100716.41;;;8.00;55.15
48606;BME280;8482;54.396;18.590;2023-04-26T08:24:53;100726.34;;;8.09;55.42
48606;BME280;8482;54.396;18.590;2023-04-26T08:27:20;100726.03;;;8.14;55.25
48606;BME280;8482;54.396;18.590;2023-04-26T08:29:46;100755.84;;;8.16;55.66
48606;BME280;8482;54.396;18.590;2023-04-26T08:32:12;100750.13;;;8.09;56.27
48606;BME280;8482;54.396;18.590;2023-04-26T08:34:38;100766.94;;;7.95;57.96
48606;BME280;8482;54.396;18.590;2023-04-26T08:37:06;100764.50;;;7.92;59.27
48606;BME280;8482;54.396;18.590;2023-04-26T08:39:35;100774.22;;;7.92;61.40
48606;BME280;8482;54.396;18.590;2023-04-26T08:42:12;100779.69;;;7.89;62.20
48606;BME280;8482;54.396;18.590;2023-04-26T08:44:41;100769.22;;;7.74;63.36
48606;BME280;8482;54.396;18.590;2023-04-26T08:50:07;100763.31;;;7.43;65.96
48606;BME280;8482;54.396;18.590;2023-04-26T08:52:35;100773.03;;;7.43;67.14
48606;BME280;8482;54.396;18.590;2023-04-26T08:55:06;100763.44;;;7.42;67.24
48606;BME280;8482;54.396;18.590;2023-04-26T08:57:32;100760.44;;;7.33;67.04
48606;BME280;8482;54.396;18.590;2023-04-26T08:59:59;100766.69;;;7.32;67.25
48606;BME280;8482;54.396;18.590;2023-04-26T09:02:26;100765.91;;;7.30;68.37
48606;BME280;8482;54.396;18.590;2023-04-26T09:04:52;100774.78;;;7.29;68.66
48606;BME280;8482;54.396;18.590;2023-04-26T09:07:32;100770.63;;;7.25;69.09
48606;BME280;8482;54.396;18.590;2023-04-26T09:10:03;100771.59;;;7.24;69.19
48606;BME280;8482;54.396;18.590;2023-04-26T09:12:29;100772.44;;;7.25;69.73
48606;BME280;8482;54.396;18.590;2023-04-26T09:14:55;100767.06;;;7.26;70.98
48606;BME280;8482;54.396;18.590;2023-04-26T09:17:37;100771.09;;;7.32;70.83
48606;BME280;8482;54.396;18.590;2023-04-26T09:20:27;100771.66;;;7.37;70.97
48606;BME280;8482;54.396;18.590;2023-04-26T09:23:04;100779.25;;;7.42;70.55
48606;BME280;8482;54.396;18.590;2023-04-26T09:25:31;100768.81;;;7.40;70.56
48606;BME280;8482;54.396;18.590;2023-04-26T09:27:59;100781.72;;;7.45;70.49
48606;BME280;8482;54.396;18.590;2023-04-26T09:30:27;100776.94;;;7.50;69.14
48606;BME280;8482;54.396;18.590;2023-04-26T09:32:59;100784.03;;;7.49;69.03
48606;BME280;8482;54.396;18.590;2023-04-26T09:35:42;100784.69;;;7.53;68.59
48606;BME280;8482;54.396;18.590;2023-04-26T09:38:15;100779.22;;;7.56;68.00
48606;BME280;8482;54.396;18.590;2023-04-26T09:40:49;100779.66;;;7.63;68.41
48606;BME280;8482;54.396;18.590;2023-04-26T09:43:20;100781.16;;;7.67;67.67
48606;BME280;8482;54.396;18.590;2023-04-26T09:45:51;100780.22;;;7.81;65.31
48606;BME280;8482;54.396;18.590;2023-04-26T09:48:32;100784.00;;;7.77;65.45
48606;BME280;8482;54.396;18.590;2023-04-26T09:51:09;100794.69;;;7.88;64.61
48606;BME280;8482;54.396;18.590;2023-04-26T09:53:44;100795.00;;;7.83;65.05
48606;BME280;8482;54.396;18.590;2023-04-26T09:56:14;100800.94;;;7.87;64.69
48606;BME280;8482;54.396;18.590;2023-04-26T10:01:14;100799.25;;;7.86;64.54
48606;BME280;8482;54.396;18.590;2023-04-26T10:03:41;100795.94;;;7.82;64.59
48606;BME280;8482;54.396;18.590;2023-04-26T10:06:08;100810.09;;;7.81;64.98
48606;BME280;8482;54.396;18.590;2023-04-26T10:08:35;100815.28;;;7.83;64.66
48606;BME280;8482;54.396;18.590;2023-04-26T10:11:03;100810.00;;;7.83;65.38
48606;BME280;8482;54.396;18.590;2023-04-26T10:13:34;100818.13;;;7.80;65.38
48606;BME280;8482;54.396;18.590;2023-04-26T10:16:01;100816.44;;;7.79;65.44
48606;BME280;8482;54.396;18.590;2023-04-26T10:18:28;100823.22;;;7.83;64.86
48606;BME280;8482;54.396;18.590;2023-04-26T10:20:59;100829.63;;;7.79;65.33
48606;BME280;8482;54.396;18.590;2023-04-26T10:23:27;100825.59;;;7.73;65.55
48606;BME280;8482;54.396;18.590;2023-04-26T10:25:54;100827.69;;;7.68;67.15
48606;BME280;8482;54.396;18.590;2023-04-26T10:31:06;100849.81;;;7.80;66.29
48606;BME280;8482;54.396;18.590;2023-04-26T10:33:32;100838.19;;;7.82;65.65
48606;BME280;8482;54.396;18.590;2023-04-26T10:36:11;100846.78;;;7.86;65.78
48606;BME280;8482;54.396;18.590;2023-04-26T10:42:17;100855.75;;;7.83;67.25
48606;BME280;8482;54.396;18.590;2023-04-26T10:44:48;100868.13;;;7.83;66.87
48606;BME280;8482;54.396;18.590;2023-04-26T10:47:23;100870.94;;;7.80;66.69
48606;BME280;8482;54.396;18.590;2023-04-26T10:49:49;100877.81;;;7.82;66.26
48606;BME280;8482;54.396;18.590;2023-04-26T10:52:19;100878.69;;;7.83;65.58
48606;BME280;8482;54.396;18.590;2023-04-26T10:54:53;100878.84;;;7.67;66.60
48606;BME280;8482;54.396;18.590;2023-04-26T10:57:22;100875.63;;;7.62;66.70
48606;BME280;8482;54.396;18.590;2023-04-26T11:02:55;100876.13;;;7.54;67.94
48606;BME280;8482;54.396;18.590;2023-04-26T11:05:50;100871.41;;;7.59;67.33
48606;BME280;8482;54.396;18.590;2023-04-26T11:08:20;100878.88;;;7.53;68.56
48606;BME280;8482;54.396;18.590;2023-04-26T11:11:06;100872.53;;;7.55;68.48
48606;BME280;8482;54.396;18.590;2023-04-26T11:13:42;100871.59;;;7.56;68.60
48606;BME280;8482;54.396;18.590;2023-04-26T11:16:15;100868.53;;;7.62;68.48
48606;BME280;8482;54.396;18.590;2023-04-26T11:18:47;100880.13;;;7.74;68.61
48606;BME280;8482;54.396;18.590;2023-04-26T11:21:13;100871.59;;;7.83;68.10
48606;BME280;8482;54.396;18.590;2023-04-26T11:23:52;100877.22;;;7.92;67.94
48606;BME280;8482;54.396;18.590;2023-04-26T11:26:18;100877.56;;;8.00;67.78
48606;BME280;8482;54.396;18.590;2023-04-26T11:28:44;100869.13;;;8.08;67.79
48606;BME280;8482;54.396;18.590;2023-04-26T11:31:11;100870.19;;;8.18;66.76
48606;BME280;8482;54.396;18.590;2023-04-26T11:33:40;100875.41;;;8.33;65.31
48606;BME280;8482;54.396;18.590;2023-04-26T11:36:06;100878.53;;;8.52;60.92
48606;BME280;8482;54.396;18.590;2023-04-26T11:38:33;100877.91;;;8.62;59.52
48606;BME280;8482;54.396;18.590;2023-04-26T11:41:02;100894.06;;;8.70;58.32
48606;BME280;8482;54.396;18.590;2023-04-26T11:43:38;100918.81;;;8.69;59.13
48606;BME280;8482;54.396;18.590;2023-04-26T11:46:06;100906.91;;;8.76;57.51
48606;BME280;8482;54.396;18.590;2023-04-26T11:48:35;100888.47;;;8.87;55.95
48606;BME280;8482;54.396;18.590;2023-04-26T11:51:07;100892.91;;;8.87;55.60
48606;BME280;8482;54.396;18.590;2023-04-26T11:53:40;100898.94;;;8.89;56.32
48606;BME280;8482;54.396;18.590;2023-04-26T11:56:18;100901.25;;;8.94;55.43
48606;BME280;8482;54.396;18.590;2023-04-26T11:58:49;100896.94;;;8.93;55.95
48606;BME280;8482;54.396;18.590;2023-04-26T12:01:28;100900.22;;;8.96;55.73
48606;BME280;8482;54.396;18.590;2023-04-26T12:03:57;100889.19;;;9.15;54.99
48606;BME280;8482;54.396;18.590;2023-04-26T12:06:50;100909.50;;;9.28;54.43
48606;BME280;8482;54.396;18.590;2023-04-26T12:09:22;100915.69;;;9.40;53.49
48606;BME280;8482;54.396;18.590;2023-04-26T12:12:00;100912.94;;;9.41;50.90
48606;BME280;8482;54.396;18.590;2023-04-26T12:14:38;100912.09;;;9.41;50.38
48606;BME280;8482;54.396;18.590;2023-04-26T12:17:05;100922.69;;;9.41;49.28
48606;BME280;8482;54.396;18.590;2023-04-26T12:19:36;100921.50;;;9.45;48.95
48606;BME280;8482;54.396;18.590;2023-04-26T12:22:04;100922.88;;;9.50;49.51
48606;BME280;8482;54.396;18.590;2023-04-26T12:24:32;100915.75;;;9.64;48.33
48606;BME280;8482;54.396;18.590;2023-04-26T12:27:02;100914.56;;;9.68;49.07
48606;BME280;8482;54.396;18.590;2023-04-26T12:29:29;100919.41;;;9.74;49.46
48606;BME280;8482;54.396;18.590;2023-04-26T12:32:00;100913.84;;;9.90;49.06
48606;BME280;8482;54.396;18.590;2023-04-26T12:34:27;100929.47;;;10.06;48.59
48606;BME280;8482;54.396;18.590;2023-04-26T12:36:52;100931.31;;;10.17;46.03
48606;BME280;8482;54.396;18.590;2023-04-26T12:39:19;100933.72;;;10.20;44.82
48606;BME280;8482;54.396;18.590;2023-04-26T12:41:45;100933.09;;;10.17;45.10
48606;BME280;8482;54.396;18.590;2023-04-26T12:44:11;100931.88;;;10.09;45.76
48606;BME280;8482;54.396;18.590;2023-04-26T12:46:38;100947.06;;;10.07;46.10
48606;BME280;8482;54.396;18.590;2023-04-26T12:49:04;100940.84;;;10.20;46.44
48606;BME280;8482;54.396;18.590;2023-04-26T12:51:30;100943.41;;;10.33;45.70
48606;BME280;8482;54.396;18.590;2023-04-26T12:53:57;100936.84;;;10.38;45.76
48606;BME280;8482;54.396;18.590;2023-04-26T12:56:23;100943.19;;;10.36;45.81
48606;BME280;8482;54.396;18.590;2023-04-26T12:58:49;100943.53;;;10.31;46.09
48606;BME280;8482;54.396;18.590;2023-04-26T13:01:16;100945.66;;;10.26;46.20
48606;BME280;8482;54.396;18.590;2023-04-26T13:03:42;100953.88;;;10.23;46.48
48606;BME280;8482;54.396;18.590;2023-04-26T13:06:09;100945.19;;;10.21;46.24
48606;BME280;8482;54.396;18.590;2023-04-26T13:08:35;100948.56;;;10.23;45.64
48606;BME280;8482;54.396;18.590;2023-04-26T13:11:01;100959.06;;;10.24;45.12
48606;BME280;8482;54.396;18.590;2023-04-26T13:13:26;100948.56;;;10.23;44.34
48606;BME280;8482;54.396;18.590;2023-04-26T13:15:52;100956.75;;;10.20;44.55
48606;BME280;8482;54.396;18.590;2023-04-26T13:18:18;100958.44;;;10.21;44.37
48606;BME280;8482;54.396;18.590;2023-04-26T13:20:44;100943.72;;;10.17;43.63
48606;BME280;8482;54.396;18.590;2023-04-26T13:23:10;100956.69;;;10.08;44.67
48606;BME280;8482;54.396;18.590;2023-04-26T13:25:37;100959.56;;;10.05;44.75
48606;BME280;8482;54.396;18.590;2023-04-26T13:28:03;100957.44;;;10.10;42.41
48606;BME280;8482;54.396;18.590;2023-04-26T13:30:29;100959.22;;;10.10;42.40
48606;BME280;8482;54.396;18.590;2023-04-26T13:32:56;100962.22;;;10.05;42.89
48606;BME280;8482;54.396;18.590;2023-04-26T13:35:22;100970.44;;;10.13;42.39
48606;BME280;8482;54.396;18.590;2023-04-26T13:37:48;100965.22;;;10.25;42.05
48606;BME280;8482;54.396;18.590;2023-04-26T13:40:14;100959.22;;;10.34;41.90
48606;BME280;8482;54.396;18.590;2023-04-26T13:42:40;100972.09;;;10.52;42.08
48606;BME280;8482;54.396;18.590;2023-04-26T13:45:07;100976.53;;;10.87;40.88
48606;BME280;8482;54.396;18.590;2023-04-26T13:47:36;100977.66;;;11.07;39.74
48606;BME280;8482;54.396;18.590;2023-04-26T13:50:02;100988.41;;;11.17;39.10
48606;BME280;8482;54.396;18.590;2023-04-26T13:52:28;100986.22;;;11.22;38.02
48606;BME280;8482;54.396;18.590;2023-04-26T13:54:54;100991.88;;;11.17;38.06
48606;BME280;8482;54.396;18.590;2023-04-26T13:57:20;100994.91;;;11.13;38.26
48606;BME280;8482;54.396;18.590;2023-04-26T13:59:47;100996.00;;;11.10;38.39
48606;BME280;8482;54.396;18.590;2023-04-26T14:02:12;100995.88;;;11.12;38.12
48606;BME280;8482;54.396;18.590;2023-04-26T14:04:39;101002.88;;;11.24;36.86
48606;BME280;8482;54.396;18.590;2023-04-26T14:07:08;100997.56;;;11.35;37.20
48606;BME280;8482;54.396;18.590;2023-04-26T14:09:34;101014.22;;;11.60;37.78
48606;BME280;8482;54.396;18.590;2023-04-26T14:12:00;101000.44;;;11.78;36.67
48606;BME280;8482;54.396;18.590;2023-04-26T14:14:26;101012.16;;;11.98;36.27
48606;BME280;8482;54.396;18.590;2023-04-26T14:16:51;101015.63;;;12.21;36.36
48606;BME280;8482;54.396;18.590;2023-04-26T14:19:17;101020.84;;;12.44;35.85
48606;BME280;8482;54.396;18.590;2023-04-26T14:21:43;101019.00;;;12.56;35.10
48606;BME280;8482;54.396;18.590;2023-04-26T14:24:09;101036.72;;;12.67;35.47
48606;BME280;8482;54.396;18.590;2023-04-26T14:26:36;101018.81;;;12.90;34.10
48606;BME280;8482;54.396;18.590;2023-04-26T14:29:02;101016.31;;;13.19;34.41
48606;BME280;8482;54.396;18.590;2023-04-26T14:31:29;101030.84;;;13.58;33.99
48606;BME280;8482;54.396;18.590;2023-04-26T14:33:56;101020.03;;;14.00;32.56
48606;BME280;8482;54.396;18.590;2023-04-26T14:36:22;101020.47;;;14.25;32.83
48606;BME280;8482;54.396;18.590;2023-04-26T14:38:48;101027.38;;;14.47;31.98
48606;BME280;8482;54.396;18.590;2023-04-26T14:41:16;101035.72;;;14.74;31.38
48606;BME280;8482;54.396;18.590;2023-04-26T14:43:43;101023.59;;;14.99;30.98
48606;BME280;8482;54.396;18.590;2023-04-26T14:46:14;101024.66;;;15.26;31.03
48606;BME280;8482;54.396;18.590;2023-04-26T14:48:39;101040.91;;;15.42;31.29
48606;BME280;8482;54.396;18.590;2023-04-26T14:51:05;101033.59;;;15.44;29.03
48606;BME280;8482;54.396;18.590;2023-04-26T14:53:31;101035.34;;;15.26;30.36
48606;BME280;8482;54.396;18.590;2023-04-26T14:55:58;101041.22;;;15.29;31.12
48606;BME280;8482;54.396;18.590;2023-04-26T14:58:25;101038.06;;;15.54;30.21
48606;BME280;8482;54.396;18.590;2023-04-26T15:00:52;101027.41;;;15.72;30.12
48606;BME280;8482;54.396;18.590;2023-04-26T15:03:19;101035.88;;;16.05;28.97
48606;BME280;8482;54.396;18.590;2023-04-26T15:05:45;101047.34;;;16.15;29.11
48606;BME280;8482;54.396;18.590;2023-04-26T15:08:11;101050.78;;;16.26;29.05
48606;BME280;8482;54.396;18.590;2023-04-26T15:10:37;101043.00;;;16.32;28.57
48606;BME280;8482;54.396;18.590;2023-04-26T15:13:03;101041.94;;;16.43;27.70
48606;BME280;8482;54.396;18.590;2023-04-26T15:15:29;101064.13;;;16.53;27.65
48606;BME280;8482;54.396;18.590;2023-04-26T15:17:55;101058.69;;;16.63;27.55
48606;BME280;8482;54.396;18.590;2023-04-26T15:20:21;101056.16;;;16.62;27.58
48606;BME280;8482;54.396;18.590;2023-04-26T15:22:49;101060.06;;;16.67;27.15
48606;BME280;8482;54.396;18.590;2023-04-26T15:25:15;101071.00;;;16.74;27.02
48606;BME280;8482;54.396;18.590;2023-04-26T15:27:41;101057.25;;;16.69;27.02
48606;BME280;8482;54.396;18.590;2023-04-26T15:30:07;101063.97;;;16.73;26.73
48606;BME280;8482;54.396;18.590;2023-04-26T15:32:34;101066.72;;;16.63;26.16
48606;BME280;8482;54.396;18.590;2023-04-26T15:35:00;101069.31;;;16.37;26.85
48606;BME280;8482;54.396;18.590;2023-04-26T15:37:26;101076.88;;;16.42;27.07
48606;BME280;8482;54.396;18.590;2023-04-26T15:39:52;101073.59;;;16.30;27.30
48606;BME280;8482;54.396;18.590;2023-04-26T15:42:18;101068.84;;;16.23;27.65
48606;BME280;8482;54.396;18.590;2023-04-26T15:44:44;101063.13;;;16.18;27.85
48606;BME280;8482;54.396;18.590;2023-04-26T15:47:10;101076.13;;;16.03;27.87
48606;BME280;8482;54.396;18.590;2023-04-26T15:49:36;101059.47;;;15.91;27.87
48606;BME280;8482;54.396;18.590;2023-04-26T15:52:02;101064.97;;;15.80;28.19
48606;BME280;8482;54.396;18.590;2023-04-26T15:54:28;101059.84;;;15.59;28.65
48606;BME280;8482;54.396;18.590;2023-04-26T15:56:54;101063.97;;;15.53;29.15
48606;BME280;8482;54.396;18.590;2023-04-26T15:59:20;101065.38;;;15.47;28.86
48606;BME280;8482;54.396;18.590;2023-04-26T16:01:46;101063.75;;;15.27;29.35
48606;BME280;8482;54.396;18.590;2023-04-26T16:04:12;101068.56;;;15.04;29.86
48606;BME280;8482;54.396;18.590;2023-04-26T16:06:38;101074.75;;;14.94;29.60
48606;BME280;8482;54.396;18.590;2023-04-26T16:09:04;101073.50;;;14.79;29.61
48606;BME280;8482;54.396;18.590;2023-04-26T16:11:33;101087.53;;;14.61;30.13
48606;BME280;8482;54.396;18.590;2023-04-26T16:13:59;101085.44;;;14.65;30.72
48606;BME280;8482;54.396;18.590;2023-04-26T16:16:25;101097.53;;;14.69;30.83
48606;BME280;8482;54.396;18.590;2023-04-26T16:18:51;101093.44;;;14.55;30.67
48606;BME280;8482;54.396;18.590;2023-04-26T16:21:17;101097.66;;;14.48;30.46
48606;BME280;8482;54.396;18.590;2023-04-26T16:23:43;101097.06;;;14.34;30.96
48606;BME280;8482;54.396;18.590;2023-04-26T16:26:09;101111.75;;;14.19;31.25
48606;BME280;8482;54.396;18.590;2023-04-26T16:28:36;101102.28;;;13.95;31.33
48606;BME280;8482;54.396;18.590;2023-04-26T16:31:02;101112.41;;;13.70;31.37
48606;BME280;8482;54.396;18.590;2023-04-26T16:33:28;101097.56;;;13.46;31.76
48606;BME280;8482;54.396;18.590;2023-04-26T16:35:54;101110.53;;;13.18;32.40
48606;BME280;8482;54.396;18.590;2023-04-26T16:38:21;101108.31;;;13.02;32.32
48606;BME280;8482;54.396;18.590;2023-04-26T16:40:58;101111.19;;;12.90;32.96
48606;BME280;8482;54.396;18.590;2023-04-26T16:43:27;101110.84;;;12.83;32.59
48606;BME280;8482;54.396;18.590;2023-04-26T16:46:11;101109.81;;;12.63;33.65
48606;BME280;8482;54.396;18.590;2023-04-26T16:48:38;101112.41;;;12.41;34.20
48606;BME280;8482;54.396;18.590;2023-04-26T16:51:05;101116.69;;;12.21;34.55
48606;BME280;8482;54.396;18.590;2023-04-26T16:53:32;101121.28;;;12.08;35.40
48606;BME280;8482;54.396;18.590;2023-04-26T16:55:59;101128.19;;;11.99;35.18
48606;BME280;8482;54.396;18.590;2023-04-26T16:58:25;101134.91;;;11.92;34.76
48606;BME280;8482;54.396;18.590;2023-04-26T17:00:51;101136.50;;;11.83;34.74
48606;BME280;8482;54.396;18.590;2023-04-26T17:03:17;101133.94;;;11.70;35.07
48606;BME280;8482;54.396;18.590;2023-04-26T17:05:45;101133.53;;;11.52;35.70
48606;BME280;8482;54.396;18.590;2023-04-26T17:08:13;101133.75;;;11.38;36.07
48606;BME280;8482;54.396;18.590;2023-04-26T17:10:39;101132.47;;;11.19;36.53
48606;BME280;8482;54.396;18.590;2023-04-26T17:13:07;101133.75;;;11.02;36.98
48606;BME280;8482;54.396;18.590;2023-04-26T17:15:34;101139.03;;;10.91;36.99
48606;BME280;8482;54.396;18.590;2023-04-26T17:18:02;101136.09;;;10.82;37.61
48606;BME280;8482;54.396;18.590;2023-04-26T17:20:30;101144.84;;;10.71;37.88
48606;BME280;8482;54.396;18.590;2023-04-26T17:23:00;101141.19;;;10.61;38.28
48606;BME280;8482;54.396;18.590;2023-04-26T17:25:27;101149.06;;;10.50;38.38
48606;BME280;8482;54.396;18.590;2023-04-26T17:27:53;101132.22;;;10.38;38.32
48606;BME280;8482;54.396;18.590;2023-04-26T17:30:20;101152.56;;;10.37;39.13
48606;BME280;8482;54.396;18.590;2023-04-26T17:32:47;101150.69;;;10.26;39.01
48606;BME280;8482;54.396;18.590;2023-04-26T17:35:13;101160.25;;;10.16;39.38
48606;BME280;8482;54.396;18.590;2023-04-26T17:37:39;101148.47;;;10.20;38.97
48606;BME280;8482;54.396;18.590;2023-04-26T17:40:07;101155.69;;;10.05;39.70
48606;BME280;8482;54.396;18.590;2023-04-26T17:42:33;101153.72;;;9.96;39.73
48606;BME280;8482;54.396;18.590;2023-04-26T17:44:59;101164.84;;;9.88;39.83
48606;BME280;8482;54.396;18.590;2023-04-26T17:47:30;101163.34;;;9.84;39.70
48606;BME280;8482;54.396;18.590;2023-04-26T17:49:56;101166.44;;;9.78;40.12